Terminal Aerodrome Forecast
Issued by NWS Louisville, KY

Home | Current Version | Previous Version | Text Only | Print | Product List | Glossary Off
Versions: 1 2 3 4 5 6 7 8 9 10 11 12 13 14 15 16 17

000
FTUS43 KLMK 202339
TAFLEX
TAF
KLEX 202339Z 2100/2124 18005KT P6SM FEW150 FEW250
     FM210600 19009KT P6SM SKC
     FM211400 20015G22KT P6SM FEW130 FEW250
     FM212300 23009KT P6SM FEW100 SCT200=

USA.gov is the U.S. government's official web portal to all federal, state and local government web resources and services.